createdAt,value
2018-08-03T00:02:16.431Z,16.23
2018-08-03T00:04:44.594Z,16.77
2018-08-03T00:07:12.818Z,17.07
2018-08-03T00:09:40.951Z,16.00
2018-08-03T00:12:09.113Z,17.52
2018-08-03T00:14:37.217Z,16.32
2018-08-03T00:17:05.576Z,16.20
2018-08-03T00:19:33.866Z,17.85
2018-08-03T00:22:02.005Z,16.35
2018-08-03T00:24:30.115Z,16.93
2018-08-03T00:26:58.310Z,16.82
2018-08-03T00:29:26.422Z,17.48
2018-08-03T00:31:54.666Z,18.05
2018-08-03T00:34:22.809Z,16.97
2018-08-03T00:36:50.915Z,17.05
2018-08-03T00:39:19.042Z,18.70
2018-08-03T00:41:47.200Z,18.62
2018-08-03T00:44:15.328Z,18.00
2018-08-03T00:46:43.434Z,17.73
2018-08-03T00:49:11.609Z,18.25
2018-08-03T00:51:39.826Z,17.57
2018-08-03T00:54:08.252Z,18.77
2018-08-03T00:56:36.424Z,18.50
2018-08-03T00:59:04.684Z,17.73
2018-08-03T01:01:32.818Z,18.65
2018-08-03T01:04:01.168Z,17.75
2018-08-03T01:06:29.398Z,17.98
2018-08-03T01:08:57.642Z,17.62
2018-08-03T01:11:25.780Z,17.65
2018-08-03T01:13:53.966Z,18.42
2018-08-03T01:16:22.214Z,17.35
2018-08-03T01:18:50.660Z,18.87
2018-08-03T01:21:18.801Z,19.00
2018-08-03T01:23:47.003Z,17.80
2018-08-03T01:26:15.142Z,17.82
2018-08-03T01:28:43.273Z,17.95
2018-08-03T01:31:11.382Z,19.05
2018-08-03T01:33:39.539Z,19.17
2018-08-03T01:36:07.686Z,20.17
2018-08-03T01:38:35.874Z,20.72
2018-08-03T01:41:03.995Z,20.40
2018-08-03T01:43:32.211Z,20.85
2018-08-03T01:46:00.472Z,20.40
2018-08-03T01:48:29.139Z,19.82
2018-08-03T01:50:57.210Z,19.17
2018-08-03T01:53:25.583Z,17.62
2018-08-03T01:58:44.546Z,17.60
2018-08-03T02:01:12.819Z,18.40
2018-08-03T02:03:40.963Z,18.62
2018-08-03T02:06:09.163Z,17.95
2018-08-03T02:08:37.348Z,18.20
2018-08-03T02:11:05.579Z,19.05
2018-08-03T02:13:33.679Z,19.35
2018-08-03T02:16:01.775Z,19.12
2018-08-03T02:18:30.008Z,18.90
2018-08-03T02:20:58.114Z,17.17
2018-08-03T02:23:26.203Z,17.70
2018-08-03T02:25:54.648Z,17.73
2018-08-03T02:28:22.742Z,18.52
2018-08-03T02:30:50.867Z,18.85
2018-08-03T02:33:19.080Z,18.23
2018-08-03T02:35:47.171Z,18.87
2018-08-03T02:40:49.902Z,18.40
2018-08-03T02:43:18.016Z,19.35
2018-08-03T02:45:46.121Z,17.82
2018-08-03T02:48:14.362Z,18.77
2018-08-03T02:50:42.546Z,19.02
2018-08-03T02:53:10.690Z,19.27
2018-08-03T02:55:38.862Z,19.32
2018-08-03T02:58:07.014Z,19.45
2018-08-03T03:00:35.290Z,19.30
2018-08-03T03:03:03.688Z,18.05
2018-08-03T03:05:31.865Z,18.95
2018-08-03T03:07:59.986Z,18.25
2018-08-03T03:10:28.114Z,18.77
2018-08-03T03:12:56.562Z,17.42
2018-08-03T03:15:24.667Z,18.45
2018-08-03T03:17:52.803Z,18.67
2018-08-03T03:20:20.991Z,19.27
2018-08-03T03:22:49.186Z,19.30
2018-08-03T03:25:17.330Z,20.95
2018-08-03T03:27:45.645Z,20.12
2018-08-03T03:30:13.831Z,17.70
2018-08-03T03:32:42.090Z,20.00
2018-08-03T03:35:10.181Z,19.10
2018-08-03T03:37:38.323Z,18.87
2018-08-03T03:40:06.686Z,20.30
2018-08-03T03:42:34.959Z,20.02
2018-08-03T03:45:03.148Z,18.57
2018-08-03T03:47:31.495Z,18.48
2018-08-03T03:49:59.603Z,18.55
2018-08-03T03:52:27.897Z,18.80
2018-08-03T03:54:56.034Z,19.82
2018-08-03T03:57:24.211Z,19.80
2018-08-03T03:59:52.328Z,19.67
2018-08-03T04:02:20.438Z,19.40
2018-08-03T04:04:48.593Z,19.98
2018-08-03T04:07:17.071Z,19.65
2018-08-03T04:09:45.223Z,18.73
2018-08-03T04:12:13.428Z,19.73
2018-08-03T04:14:41.494Z,18.90
2018-08-03T04:17:09.620Z,19.65
2018-08-03T04:19:37.819Z,19.70
2018-08-03T04:22:05.934Z,21.10
2018-08-03T04:24:34.201Z,19.80
2018-08-03T04:27:02.505Z,20.10
2018-08-03T04:29:31.091Z,21.00
2018-08-03T04:31:59.414Z,20.60
2018-08-03T04:34:27.558Z,18.50
2018-08-03T04:36:55.682Z,21.10
2018-08-03T04:39:23.896Z,19.50
2018-08-03T04:41:52.031Z,19.42
2018-08-03T04:44:20.370Z,19.32
2018-08-03T04:46:48.524Z,50.98
2018-08-03T04:49:16.651Z,33.53
2018-08-03T04:51:44.763Z,25.08
2018-08-03T04:54:12.963Z,22.27
2018-08-03T04:56:41.138Z,22.35
2018-08-03T04:59:09.273Z,21.23
2018-08-03T05:01:37.391Z,23.32
2018-08-03T05:04:05.692Z,22.45
2018-08-03T05:06:34.012Z,22.48
2018-08-03T05:09:02.250Z,21.10
2018-08-03T05:11:30.368Z,19.65
2018-08-03T05:13:58.592Z,21.68
2018-08-03T05:16:26.811Z,20.32
2018-08-03T05:18:55.188Z,21.62
2018-08-03T05:21:23.305Z,19.25
2018-08-03T05:23:51.439Z,21.93
2018-08-03T05:26:19.707Z,22.17
2018-08-03T05:28:48.075Z,21.55
2018-08-03T05:31:19.223Z,22.65
2018-08-03T05:33:47.457Z,22.35
2018-08-03T05:36:15.656Z,21.37
2018-08-03T05:38:43.807Z,21.00
2018-08-03T05:41:12.006Z,22.37
2018-08-03T05:43:40.137Z,22.32
2018-08-03T05:46:08.558Z,22.90
2018-08-03T05:48:36.752Z,23.25
2018-08-03T05:51:05.010Z,21.97
2018-08-03T05:53:33.250Z,23.32
2018-08-03T05:56:01.413Z,23.52
2018-08-03T05:58:29.628Z,23.60
2018-08-03T06:00:58.614Z,23.52
2018-08-03T06:03:26.734Z,24.30
2018-08-03T06:05:55.599Z,24.30
2018-08-03T06:08:23.702Z,24.12
2018-08-03T06:10:51.908Z,24.10
2018-08-03T06:13:20.065Z,23.45
2018-08-03T06:15:48.287Z,22.13
2018-08-03T06:18:16.544Z,22.40
2018-08-03T06:20:44.877Z,21.33
2018-08-03T06:23:12.972Z,23.02
2018-08-03T06:25:41.997Z,20.90
2018-08-03T06:28:10.139Z,21.93
2018-08-03T06:30:38.375Z,22.27
2018-08-03T06:33:06.864Z,22.42
2018-08-03T06:35:35.189Z,21.90
2018-08-03T06:38:03.326Z,22.45
2018-08-03T06:40:31.579Z,24.72
2018-08-03T06:42:59.927Z,24.27
2018-08-03T06:45:28.155Z,25.32
2018-08-03T06:47:56.327Z,23.00
2018-08-03T06:50:24.475Z,24.32
2018-08-03T06:52:53.085Z,23.75
2018-08-03T06:55:21.234Z,21.70
2018-08-03T06:57:50.424Z,21.97
2018-08-03T07:00:19.448Z,21.70
2018-08-03T07:02:48.007Z,21.10
2018-08-03T07:05:16.559Z,21.55
2018-08-03T07:07:44.769Z,21.12
2018-08-03T07:10:12.928Z,20.55
2018-08-03T07:12:41.958Z,20.40
2018-08-03T07:15:10.671Z,20.40
2018-08-03T07:17:39.039Z,20.08
2018-08-03T07:20:07.342Z,20.23
2018-08-03T07:22:35.546Z,20.20
2018-08-03T07:25:03.899Z,20.55
2018-08-03T07:27:32.241Z,18.87
2018-08-03T07:30:00.551Z,19.60
2018-08-03T07:32:28.687Z,19.87
2018-08-03T07:34:57.099Z,19.45
2018-08-03T07:37:26.026Z,19.12
2018-08-03T07:39:54.471Z,18.37
2018-08-03T07:42:22.595Z,17.85
2018-08-03T07:44:51.113Z,18.48
2018-08-03T07:47:19.301Z,18.55
2018-08-03T07:49:47.743Z,18.45
2018-08-03T07:52:15.883Z,18.15
2018-08-03T07:54:44.226Z,19.10
2018-08-03T07:57:12.646Z,18.87
2018-08-03T07:59:41.006Z,18.10
2018-08-03T08:02:09.268Z,18.62
2018-08-03T08:04:37.607Z,18.20
2018-08-03T08:07:05.942Z,18.62
2018-08-03T08:09:34.313Z,17.12
2018-08-03T08:12:02.665Z,17.10
2018-08-03T08:14:31.207Z,16.25
2018-08-03T08:16:59.525Z,17.70
2018-08-03T08:19:27.851Z,17.80
2018-08-03T08:21:56.057Z,17.75
2018-08-03T08:24:25.495Z,16.87
2018-08-03T08:26:54.050Z,18.55
2018-08-03T08:29:22.471Z,17.73
2018-08-03T08:31:50.667Z,16.85
2018-08-03T08:34:19.041Z,17.05
2018-08-03T08:36:48.794Z,17.30
2018-08-03T08:39:17.047Z,17.95
2018-08-03T08:41:45.532Z,16.17
2018-08-03T08:44:14.295Z,17.50
2018-08-03T08:46:42.903Z,18.20
2018-08-03T08:49:11.513Z,17.20
2018-08-03T08:51:39.703Z,16.80
2018-08-03T08:54:07.968Z,17.10
2018-08-03T08:56:36.238Z,16.57
2018-08-03T08:59:04.543Z,16.75
2018-08-03T09:01:32.667Z,16.77
2018-08-03T09:04:01.121Z,16.35
2018-08-03T09:06:29.501Z,17.17
2018-08-03T09:08:58.123Z,16.60
2018-08-03T09:11:26.316Z,16.65
2018-08-03T09:13:55.636Z,17.55
2018-08-03T09:16:24.109Z,17.50
2018-08-03T09:18:52.587Z,16.55
2018-08-03T09:21:21.003Z,16.52
2018-08-03T09:23:49.218Z,17.05
2018-08-03T09:26:17.343Z,17.27
2018-08-03T09:28:45.738Z,16.45
2018-08-03T09:31:13.950Z,17.35
2018-08-03T09:33:42.083Z,16.23
2018-08-03T09:36:10.295Z,16.35
2018-08-03T09:38:38.435Z,16.30
2018-08-03T09:41:06.687Z,17.20
2018-08-03T09:43:34.854Z,16.80
2018-08-03T09:46:03.125Z,17.15
2018-08-03T09:48:31.388Z,17.35
2018-08-03T09:50:59.541Z,16.52
2018-08-03T09:53:27.682Z,16.48
2018-08-03T09:55:55.884Z,16.40
2018-08-03T09:58:26.479Z,17.15
2018-08-03T10:00:57.290Z,15.80
2018-08-03T10:03:25.750Z,15.38
2018-08-03T10:05:54.347Z,16.87
2018-08-03T10:08:22.612Z,17.10
2018-08-03T10:10:50.839Z,16.10
2018-08-03T10:13:19.003Z,16.62
2018-08-03T10:15:47.295Z,17.10
2018-08-03T10:18:15.402Z,16.55
2018-08-03T10:20:43.575Z,15.95
2018-08-03T10:23:12.143Z,16.42
2018-08-03T10:25:40.278Z,17.27
2018-08-03T10:28:08.590Z,17.52
2018-08-03T10:30:36.846Z,17.60
2018-08-03T10:33:05.158Z,16.05
2018-08-03T10:35:33.490Z,17.32
2018-08-03T10:38:01.679Z,16.73
2018-08-03T10:40:29.779Z,16.42
2018-08-03T10:42:58.696Z,15.88
2018-08-03T10:45:26.907Z,17.40
2018-08-03T10:47:55.051Z,18.23
2018-08-03T10:50:23.166Z,17.00
2018-08-03T10:52:51.485Z,16.48
2018-08-03T10:55:19.592Z,16.85
2018-08-03T10:57:47.816Z,17.70
2018-08-03T11:00:28.945Z,16.27
2018-08-03T11:02:57.535Z,16.48
2018-08-03T11:05:26.015Z,16.73
2018-08-03T11:07:54.266Z,17.05
2018-08-03T11:10:22.401Z,17.25
2018-08-03T11:12:51.351Z,15.90
2018-08-03T11:15:20.018Z,15.83
2018-08-03T11:17:49.124Z,15.70
2018-08-03T11:20:17.495Z,15.50
2018-08-03T11:22:46.073Z,16.20
2018-08-03T11:25:14.247Z,17.00
2018-08-03T11:27:42.392Z,17.00
2018-08-03T11:30:11.282Z,16.32
2018-08-03T11:32:39.613Z,17.00
2018-08-03T11:35:08.911Z,16.87
2018-08-03T11:37:37.255Z,15.98
2018-08-03T11:40:06.047Z,16.15
2018-08-03T11:42:34.328Z,16.05
2018-08-03T11:45:02.445Z,16.70
2018-08-03T11:47:30.820Z,16.12
2018-08-03T11:50:00.043Z,16.60
2018-08-03T11:52:28.189Z,15.78
2018-08-03T11:54:56.466Z,15.55
2018-08-03T11:57:24.630Z,16.40
2018-08-03T11:59:53.886Z,15.35
2018-08-03T12:02:22.087Z,14.40
2018-08-03T12:04:50.442Z,14.73
2018-08-03T12:07:18.622Z,14.85
2018-08-03T12:09:47.037Z,15.35
2018-08-03T12:12:15.173Z,13.85
2018-08-03T12:14:43.607Z,14.40
2018-08-03T12:17:12.097Z,14.38
2018-08-03T12:19:40.485Z,14.60
2018-08-03T12:22:08.817Z,14.35
2018-08-03T12:24:37.178Z,14.23
2018-08-03T12:27:05.354Z,14.68
2018-08-03T12:29:33.991Z,13.40
2018-08-03T12:32:02.256Z,14.13
2018-08-03T12:34:30.436Z,14.80
2018-08-03T12:36:58.885Z,14.65
2018-08-03T12:39:28.275Z,13.90
2018-08-03T12:41:56.404Z,13.48
2018-08-03T12:44:24.579Z,13.53
2018-08-03T12:46:52.951Z,13.85
2018-08-03T12:49:21.710Z,14.38
2018-08-03T12:51:51.596Z,12.95
2018-08-03T12:54:19.981Z,13.80
2018-08-03T12:56:48.105Z,13.93
2018-08-03T12:59:16.349Z,12.78
2018-08-03T13:01:44.556Z,13.58
2018-08-03T13:04:14.169Z,14.15
2018-08-03T13:06:42.375Z,13.58
2018-08-03T13:09:10.560Z,14.43
2018-08-03T13:11:38.781Z,14.03
2018-08-03T13:14:07.048Z,14.00
2018-08-03T13:16:35.849Z,14.05
2018-08-03T13:19:03.999Z,13.72
2018-08-03T13:21:36.589Z,13.30
2018-08-03T13:24:04.915Z,13.32
2018-08-03T13:26:33.042Z,12.68
2018-08-03T13:29:01.288Z,12.88
2018-08-03T13:31:30.287Z,11.88
2018-08-03T13:33:58.590Z,12.20
2018-08-03T13:36:28.091Z,10.78
2018-08-03T13:38:56.655Z,13.05
2018-08-03T13:41:24.740Z,11.83
2018-08-03T13:43:53.050Z,11.63
2018-08-03T13:46:21.167Z,11.95
2018-08-03T13:48:50.103Z,12.25
2018-08-03T13:51:19.175Z,12.85
2018-08-03T13:53:48.182Z,12.28
2018-08-03T13:56:17.455Z,12.20
2018-08-03T13:58:46.491Z,13.00
2018-08-03T14:01:26.215Z,12.90
2018-08-03T14:03:54.365Z,13.28
2018-08-03T14:06:22.482Z,13.18
2018-08-03T14:08:50.706Z,13.78
2018-08-03T14:11:19.642Z,12.50
2018-08-03T14:13:48.419Z,13.68
2018-08-03T14:16:16.755Z,12.50
2018-08-03T14:18:46.461Z,12.28
2018-08-03T14:21:14.606Z,12.70
2018-08-03T14:23:42.882Z,12.28
2018-08-03T14:26:11.028Z,12.47
2018-08-03T14:28:39.271Z,12.80
2018-08-03T14:31:07.455Z,12.43
2018-08-03T14:33:35.657Z,12.28
2018-08-03T14:36:03.816Z,12.43
2018-08-03T14:38:31.971Z,12.28
2018-08-03T14:41:00.187Z,12.05
2018-08-03T14:43:28.371Z,12.55
2018-08-03T14:45:56.534Z,13.20
2018-08-03T14:48:24.643Z,12.37
2018-08-03T14:50:52.794Z,12.90
2018-08-03T14:53:21.276Z,13.80
2018-08-03T14:55:49.598Z,12.50
2018-08-03T14:58:18.151Z,11.85
2018-08-03T15:00:46.321Z,12.40
2018-08-03T15:03:14.910Z,12.55
2018-08-03T15:05:43.039Z,12.37
2018-08-03T15:08:11.375Z,12.93
2018-08-03T15:10:39.729Z,12.73
2018-08-03T15:13:08.010Z,13.28
2018-08-03T15:15:36.275Z,12.85
2018-08-03T15:18:04.448Z,12.93
2018-08-03T15:20:32.567Z,12.55
2018-08-03T15:23:01.079Z,12.20
2018-08-03T15:25:29.496Z,13.80
2018-08-03T15:27:57.833Z,12.23
2018-08-03T15:30:26.906Z,12.43
2018-08-03T15:32:55.057Z,12.65
2018-08-03T15:35:23.315Z,13.88
2018-08-03T15:37:51.752Z,13.30
2018-08-03T15:40:19.898Z,12.37
2018-08-03T15:42:48.204Z,12.55
2018-08-03T15:45:16.328Z,12.55
2018-08-03T15:47:44.554Z,12.15
2018-08-03T15:50:12.681Z,13.13
2018-08-03T15:52:41.394Z,12.73
2018-08-03T15:55:09.747Z,12.80
2018-08-03T15:57:37.994Z,12.23
2018-08-03T16:00:07.799Z,12.35
2018-08-03T16:02:35.976Z,13.25
2018-08-03T16:05:04.182Z,12.53
2018-08-03T16:07:32.319Z,13.80
2018-08-03T16:10:00.471Z,14.85
2018-08-03T16:12:28.631Z,13.60
2018-08-03T16:14:57.393Z,14.13
2018-08-03T16:17:25.651Z,14.68
2018-08-03T16:19:53.924Z,14.65
2018-08-03T16:22:22.028Z,15.55
2018-08-03T16:24:50.326Z,14.50
2018-08-03T16:27:18.591Z,14.73
2018-08-03T16:29:46.818Z,14.98
2018-08-03T16:32:15.307Z,14.53
2018-08-03T16:34:43.520Z,14.93
2018-08-03T16:37:11.668Z,15.78
2018-08-03T16:39:39.817Z,15.83
2018-08-03T16:42:08.158Z,14.10
2018-08-03T16:44:36.397Z,14.35
2018-08-03T16:47:04.502Z,14.23
2018-08-03T16:49:32.720Z,14.50
2018-08-03T16:52:00.861Z,14.23
2018-08-03T16:54:29.003Z,14.30
2018-08-03T16:56:57.248Z,13.22
2018-08-03T16:59:25.530Z,14.03
2018-08-03T17:01:53.651Z,13.90
2018-08-03T17:04:22.008Z,16.32
2018-08-03T17:06:50.212Z,14.70
2018-08-03T17:09:18.416Z,15.05
2018-08-03T17:11:46.558Z,16.67
2018-08-03T17:14:14.668Z,15.65
2018-08-03T17:16:42.775Z,15.75
2018-08-03T17:19:10.950Z,16.42
2018-08-03T17:21:39.151Z,16.62
2018-08-03T17:24:07.423Z,16.42
2018-08-03T17:26:35.686Z,16.10
2018-08-03T17:29:03.812Z,16.10
2018-08-03T17:31:31.942Z,15.18
2018-08-03T17:34:00.140Z,16.62
2018-08-03T17:36:28.291Z,16.45
2018-08-03T17:38:56.556Z,14.65
2018-08-03T17:41:24.695Z,15.98
2018-08-03T17:43:52.877Z,15.35
2018-08-03T17:46:21.230Z,14.33
2018-08-03T17:48:49.378Z,14.78
2018-08-03T17:51:17.545Z,14.70
2018-08-03T17:53:45.678Z,14.55
2018-08-03T17:56:13.873Z,14.70
2018-08-03T17:58:42.020Z,14.18
2018-08-03T18:01:10.547Z,14.53
2018-08-03T18:03:38.670Z,14.65
2018-08-03T18:06:06.887Z,14.10
2018-08-03T18:08:35.064Z,13.80
2018-08-03T18:11:03.359Z,14.53
2018-08-03T18:13:31.559Z,14.47
2018-08-03T18:15:59.774Z,14.33
2018-08-03T18:18:28.098Z,13.45
2018-08-03T18:20:56.312Z,14.07
2018-08-03T18:23:24.496Z,13.90
2018-08-03T18:25:52.610Z,13.68
2018-08-03T18:28:20.827Z,13.30
2018-08-03T18:30:49.378Z,13.45
2018-08-03T18:33:17.585Z,13.20
2018-08-03T18:35:45.767Z,13.30
2018-08-03T18:38:14.132Z,12.70
2018-08-03T18:40:42.274Z,12.28
2018-08-03T18:43:10.455Z,12.75
2018-08-03T18:45:38.592Z,12.55
2018-08-03T18:48:06.734Z,12.68
2018-08-03T18:50:34.901Z,11.73
2018-08-03T18:53:03.040Z,11.88
2018-08-03T18:55:31.420Z,11.85
2018-08-03T18:57:59.866Z,12.60
2018-08-03T19:00:28.007Z,12.23
2018-08-03T19:02:56.186Z,11.57
2018-08-03T19:05:24.539Z,11.65
2018-08-03T19:07:52.655Z,12.07
2018-08-03T19:10:20.837Z,12.13
2018-08-03T19:12:49.141Z,12.37
2018-08-03T19:15:18.301Z,11.90
2018-08-03T19:17:46.428Z,11.57
2018-08-03T19:20:26.059Z,13.65
2018-08-03T19:22:54.377Z,12.45
2018-08-03T19:25:22.564Z,12.75
2018-08-03T19:27:50.894Z,13.72
2018-08-03T19:30:19.469Z,13.43
2018-08-03T19:32:47.551Z,12.35
2018-08-03T19:35:16.085Z,13.40
2018-08-03T19:37:44.493Z,14.03
2018-08-03T19:40:12.607Z,13.78
2018-08-03T19:42:40.763Z,14.47
2018-08-03T19:45:08.907Z,13.72
2018-08-03T19:47:36.999Z,14.43
2018-08-03T19:50:05.131Z,13.53
2018-08-03T19:52:33.271Z,14.05
2018-08-03T19:55:01.411Z,13.93
2018-08-03T19:57:29.550Z,13.68
2018-08-03T19:59:57.930Z,13.18
2018-08-03T20:02:26.067Z,12.93
2018-08-03T20:04:54.163Z,13.53
2018-08-03T20:07:22.602Z,12.88
2018-08-03T20:09:50.868Z,13.90
2018-08-03T20:12:19.351Z,13.53
2018-08-03T20:14:47.497Z,12.75
2018-08-03T20:17:15.730Z,13.35
2018-08-03T20:19:43.991Z,13.22
2018-08-03T20:22:14.178Z,12.82
2018-08-03T20:24:42.354Z,13.45
2018-08-03T20:27:10.760Z,13.18
2018-08-03T20:29:39.083Z,12.40
2018-08-03T20:32:07.456Z,13.18
2018-08-03T20:34:35.576Z,13.25
2018-08-03T20:37:03.752Z,13.15
2018-08-03T20:39:32.597Z,12.28
2018-08-03T20:42:01.100Z,13.28
2018-08-03T20:44:29.796Z,12.07
2018-08-03T20:46:57.926Z,13.15
2018-08-03T20:52:35.427Z,13.93
2018-08-03T20:55:04.269Z,14.50
2018-08-03T20:57:32.404Z,13.78
2018-08-03T21:00:00.644Z,13.75
2018-08-03T21:02:28.876Z,14.38
2018-08-03T21:04:57.163Z,14.70
2018-08-03T21:07:25.310Z,15.35
2018-08-03T21:09:53.851Z,14.68
2018-08-03T21:12:22.099Z,16.23
2018-08-03T21:14:50.387Z,14.55
2018-08-03T21:17:19.207Z,14.70
2018-08-03T21:19:47.333Z,15.23
2018-08-03T21:22:15.803Z,14.85
2018-08-03T21:24:44.558Z,14.98
2018-08-03T21:27:13.045Z,14.40
2018-08-03T21:29:41.245Z,14.38
2018-08-03T21:32:09.836Z,14.75
2018-08-03T21:34:37.970Z,15.10
2018-08-03T21:37:06.131Z,16.23
2018-08-03T21:39:34.414Z,15.70
2018-08-03T21:42:02.561Z,15.28
2018-08-03T21:44:30.854Z,15.35
2018-08-03T21:46:58.972Z,16.00
2018-08-03T21:49:27.174Z,15.40
2018-08-03T21:51:56.034Z,15.72
2018-08-03T21:54:24.423Z,15.18
2018-08-03T21:56:52.540Z,15.18
2018-08-03T21:59:21.050Z,14.63
2018-08-03T22:01:49.311Z,15.68
2018-08-03T22:04:17.555Z,14.63
2018-08-03T22:06:45.722Z,14.78
2018-08-03T22:09:13.895Z,13.45
2018-08-03T22:11:42.003Z,14.43
2018-08-03T22:14:10.204Z,13.85
2018-08-03T22:16:39.222Z,14.07
2018-08-03T22:19:07.338Z,12.75
2018-08-03T22:21:35.579Z,13.62
2018-08-03T22:24:03.999Z,13.00
2018-08-03T22:26:32.382Z,12.75
2018-08-03T22:29:00.524Z,13.28
2018-08-03T22:31:28.685Z,12.98
2018-08-03T22:33:56.866Z,12.50
2018-08-03T22:36:25.228Z,13.10
2018-08-03T22:38:53.450Z,13.03
2018-08-03T22:41:21.646Z,13.03
2018-08-03T22:43:50.099Z,12.28
2018-08-03T22:46:18.217Z,13.10
2018-08-03T22:48:46.422Z,12.82
2018-08-03T22:51:14.647Z,17.12
2018-08-03T22:53:43.071Z,14.00
2018-08-03T22:56:11.234Z,12.30
2018-08-03T22:58:39.401Z,12.75
2018-08-03T23:01:07.929Z,13.30
2018-08-03T23:03:36.163Z,14.20
2018-08-03T23:06:04.338Z,12.85
2018-08-03T23:08:32.490Z,13.43
2018-08-03T23:11:01.139Z,13.13
2018-08-03T23:13:29.319Z,13.30
2018-08-03T23:15:57.588Z,12.75
2018-08-03T23:18:25.807Z,14.70
2018-08-03T23:20:54.187Z,13.62
2018-08-03T23:23:22.515Z,13.62
2018-08-03T23:25:50.821Z,13.05
2018-08-03T23:28:19.300Z,13.58
2018-08-03T23:30:47.709Z,13.75
2018-08-03T23:33:15.936Z,14.05
2018-08-03T23:35:44.444Z,13.75
2018-08-03T23:38:12.715Z,13.95
2018-08-03T23:40:40.900Z,13.93
2018-08-03T23:43:09.258Z,14.10
2018-08-03T23:45:37.407Z,13.13
2018-08-03T23:48:05.630Z,13.35
2018-08-03T23:50:33.779Z,13.72
2018-08-03T23:53:02.153Z,13.50
2018-08-03T23:55:30.313Z,14.15
2018-08-03T23:57:58.552Z,13.88
